createdAt,value
2023-02-22T00:02:23.957Z,59.01
2023-02-22T00:04:50.649Z,59.04
2023-02-22T00:07:17.164Z,59.10
2023-02-22T00:09:43.640Z,59.06
2023-02-22T00:12:10.290Z,59.09
2023-02-22T00:14:36.851Z,59.22
2023-02-22T00:17:03.464Z,59.26
2023-02-22T00:19:29.997Z,59.33
2023-02-22T00:21:56.572Z,59.39
2023-02-22T00:24:23.559Z,59.09
2023-02-22T00:26:54.950Z,59.42
2023-02-22T00:29:22.494Z,59.28
2023-02-22T00:31:49.293Z,59.34
2023-02-22T00:34:16.196Z,59.51
2023-02-22T00:36:47.783Z,59.40
2023-02-22T00:39:14.393Z,59.46
2023-02-22T00:41:40.912Z,59.43
2023-02-22T00:44:07.624Z,59.48
2023-02-22T00:46:34.169Z,59.48
2023-02-22T00:49:00.776Z,59.42
2023-02-22T00:51:27.362Z,59.30
2023-02-22T00:53:53.942Z,59.47
2023-02-22T00:56:20.810Z,59.27
2023-02-22T00:58:47.426Z,59.40
2023-02-22T01:01:14.064Z,59.17
2023-02-22T01:03:40.705Z,59.16
2023-02-22T01:06:07.942Z,59.26
2023-02-22T01:08:34.565Z,59.31
2023-02-22T01:11:01.213Z,59.36
2023-02-22T01:13:27.766Z,59.25
2023-02-22T01:15:54.346Z,59.53
2023-02-22T01:18:20.885Z,59.31
2023-02-22T01:20:48.290Z,59.45
2023-02-22T01:23:15.622Z,59.44
2023-02-22T01:25:42.116Z,59.58
2023-02-22T01:28:08.929Z,59.78
2023-02-22T01:30:36.925Z,59.53
2023-02-22T01:33:05.776Z,59.75
2023-02-22T01:35:38.032Z,59.95
2023-02-22T01:38:04.841Z,60.13
2023-02-22T01:40:35.082Z,60.15
2023-02-22T01:43:18.637Z,60.49
2023-02-22T01:45:49.097Z,60.33
2023-02-22T01:48:44.557Z,60.28
2023-02-22T01:51:16.777Z,60.42
2023-02-22T01:54:06.507Z,60.42
2023-02-22T01:56:37.402Z,60.19
2023-02-22T01:59:08.290Z,60.29
2023-02-22T02:01:37.017Z,60.07
2023-02-22T02:04:07.507Z,60.12
2023-02-22T02:06:36.099Z,60.25
2023-02-22T02:09:22.918Z,60.30
2023-02-22T02:11:49.724Z,60.31
2023-02-22T02:14:16.949Z,60.15
2023-02-22T02:16:47.455Z,60.02
2023-02-22T02:19:34.759Z,60.17
2023-02-22T02:22:29.136Z,60.08
2023-02-22T02:25:17.732Z,60.11
2023-02-22T02:28:11.241Z,60.19
2023-02-22T02:30:52.964Z,60.21
2023-02-22T02:33:19.477Z,60.33
2023-02-22T02:36:14.515Z,60.44
2023-02-22T02:39:09.043Z,59.98
2023-02-22T02:41:53.360Z,60.21
2023-02-22T02:44:31.317Z,60.08
2023-02-22T02:47:05.121Z,60.02
2023-02-22T02:49:40.053Z,60.26
2023-02-22T02:52:09.177Z,60.23
2023-02-22T02:54:37.879Z,60.18
2023-02-22T02:57:04.795Z,60.16
2023-02-22T02:59:37.559Z,60.10
2023-02-22T03:02:22.174Z,60.23
2023-02-22T03:05:01.024Z,59.98
2023-02-22T03:07:49.782Z,60.24
2023-02-22T03:10:32.215Z,60.07
2023-02-22T03:13:28.841Z,59.97
2023-02-22T03:16:17.569Z,60.24
2023-02-22T03:18:56.477Z,60.24
2023-02-22T03:21:31.713Z,60.25
2023-02-22T03:24:01.250Z,60.15
2023-02-22T03:26:36.461Z,60.12
2023-02-22T03:29:07.928Z,60.35
2023-02-22T03:31:40.437Z,60.40
2023-02-22T03:34:20.165Z,60.20
2023-02-22T03:37:18.231Z,60.33
2023-02-22T03:39:49.376Z,60.35
2023-02-22T03:42:22.716Z,60.39
2023-02-22T03:44:53.311Z,60.52
2023-02-22T03:47:32.467Z,60.53
2023-02-22T03:50:16.403Z,60.26
2023-02-22T03:52:44.709Z,60.54
2023-02-22T03:55:17.348Z,60.28
2023-02-22T03:57:49.399Z,60.45
2023-02-22T04:00:21.374Z,60.54
2023-02-22T04:02:47.923Z,60.39
2023-02-22T04:05:19.439Z,60.32
2023-02-22T04:07:47.254Z,60.32
2023-02-22T04:10:16.745Z,60.46
2023-02-22T04:12:43.821Z,60.41
2023-02-22T04:15:13.995Z,60.44
2023-02-22T04:17:40.572Z,60.53
2023-02-22T04:20:10.370Z,60.48
2023-02-22T04:22:57.537Z,60.53
2023-02-22T04:25:24.512Z,60.67
2023-02-22T04:27:52.230Z,60.67
2023-02-22T04:30:23.308Z,60.52
2023-02-22T04:32:50.219Z,60.60
2023-02-22T04:35:20.893Z,60.56
2023-02-22T04:37:47.602Z,60.58
2023-02-22T04:40:16.194Z,60.66
2023-02-22T04:42:42.945Z,60.57
2023-02-22T04:45:10.700Z,60.59
2023-02-22T04:47:38.259Z,60.50
2023-02-22T04:50:09.222Z,60.58
2023-02-22T04:52:35.758Z,60.44
2023-02-22T04:55:02.546Z,60.65
2023-02-22T04:57:29.302Z,60.52
2023-02-22T04:59:56.032Z,60.52
2023-02-22T05:02:24.364Z,60.51
2023-02-22T05:04:51.011Z,60.62
2023-02-22T05:07:18.002Z,60.35
2023-02-22T05:09:44.663Z,60.59
2023-02-22T05:12:11.231Z,60.44
2023-02-22T05:14:38.215Z,60.59
2023-02-22T05:17:04.852Z,60.74
2023-02-22T05:19:31.383Z,60.51
2023-02-22T05:21:57.994Z,60.52
2023-02-22T05:24:24.617Z,60.56
2023-02-22T05:26:51.300Z,60.60
2023-02-22T05:29:17.938Z,60.52
2023-02-22T05:31:44.572Z,60.61
2023-02-22T05:34:11.371Z,60.73
2023-02-22T05:36:37.943Z,60.59
2023-02-22T05:39:04.697Z,60.87
2023-02-22T05:41:31.263Z,60.74
2023-02-22T05:43:57.806Z,60.75
2023-02-22T05:46:24.330Z,60.82
2023-02-22T05:48:51.057Z,60.93
2023-02-22T05:51:18.136Z,60.91
2023-02-22T05:53:44.991Z,60.89
2023-02-22T05:56:11.636Z,60.91
2023-02-22T05:58:38.191Z,60.87
2023-02-22T06:01:04.969Z,61.03
2023-02-22T06:03:31.532Z,61.01
2023-02-22T06:05:58.175Z,61.26
2023-02-22T06:08:24.701Z,61.13
2023-02-22T06:10:51.326Z,61.08
2023-02-22T06:13:17.831Z,61.13
2023-02-22T06:15:44.476Z,61.04
2023-02-22T06:18:11.090Z,61.24
2023-02-22T06:20:37.670Z,61.15
2023-02-22T06:23:04.484Z,61.22
2023-02-22T06:25:31.630Z,61.35
2023-02-22T06:27:59.121Z,61.29
2023-02-22T06:30:26.721Z,61.39
2023-02-22T06:32:53.282Z,61.41
2023-02-22T06:35:20.036Z,61.62
2023-02-22T06:37:47.923Z,61.76
2023-02-22T06:40:15.259Z,61.89
2023-02-22T06:42:41.749Z,61.76
2023-02-22T06:45:09.140Z,61.82
2023-02-22T06:47:42.009Z,62.04
2023-02-22T06:50:19.045Z,62.27
2023-02-22T06:52:45.551Z,62.48
2023-02-22T06:55:12.241Z,62.64
2023-02-22T06:57:38.914Z,62.85
2023-02-22T07:00:05.932Z,63.05
2023-02-22T07:02:32.534Z,63.13
2023-02-22T07:04:59.092Z,63.25
2023-02-22T07:07:26.155Z,63.21
2023-02-22T07:09:52.801Z,63.01
2023-02-22T07:12:19.538Z,63.14
2023-02-22T07:14:46.158Z,62.86
2023-02-22T07:17:12.703Z,62.70
2023-02-22T07:19:39.248Z,62.81
2023-02-22T07:22:05.740Z,62.63
2023-02-22T07:24:32.308Z,62.49
2023-02-22T07:27:01.100Z,62.15
2023-02-22T07:29:27.945Z,62.42
2023-02-22T07:31:54.556Z,62.46
2023-02-22T07:34:21.257Z,62.32
2023-02-22T07:36:47.787Z,62.03
2023-02-22T07:39:14.498Z,61.90
2023-02-22T07:41:41.303Z,61.65
2023-02-22T07:44:21.568Z,60.75
2023-02-22T07:46:48.615Z,61.25
2023-02-22T07:49:15.248Z,61.23
2023-02-22T07:51:41.967Z,61.15
2023-02-22T07:54:08.576Z,61.02
2023-02-22T07:56:35.187Z,60.70
2023-02-22T07:59:01.658Z,60.41
2023-02-22T08:01:28.271Z,60.45
2023-02-22T08:03:54.847Z,59.97
2023-02-22T08:06:21.543Z,60.05
2023-02-22T08:08:48.047Z,58.76
2023-02-22T08:11:14.991Z,58.67
2023-02-22T08:13:41.717Z,58.18
2023-02-22T08:16:08.316Z,56.77
2023-02-22T08:18:34.791Z,57.57
2023-02-22T08:21:01.321Z,57.20
2023-02-22T08:23:27.885Z,56.65
2023-02-22T08:25:55.379Z,56.40
2023-02-22T08:28:24.320Z,55.58
2023-02-22T08:30:51.104Z,55.72
2023-02-22T08:33:18.685Z,54.63
2023-02-22T08:35:46.933Z,55.22
2023-02-22T08:38:21.220Z,53.75
2023-02-22T08:40:48.550Z,55.93
2023-02-22T08:43:15.350Z,55.71
2023-02-22T08:45:43.171Z,55.28
2023-02-22T08:48:09.779Z,55.31
2023-02-22T08:50:36.401Z,55.27
2023-02-22T08:53:04.922Z,54.98
2023-02-22T08:55:34.422Z,54.14
2023-02-22T08:58:01.952Z,54.55
2023-02-22T09:00:30.200Z,54.05
2023-02-22T09:02:56.901Z,54.15
2023-02-22T09:05:23.497Z,53.99
2023-02-22T09:07:50.106Z,53.84
2023-02-22T09:10:20.021Z,52.88
2023-02-22T09:12:46.556Z,52.41
2023-02-22T09:15:15.031Z,52.80
2023-02-22T09:17:41.558Z,52.60
2023-02-22T09:20:10.290Z,51.57
2023-02-22T09:22:36.863Z,50.77
2023-02-22T09:25:15.968Z,52.12
2023-02-22T09:27:44.162Z,51.74
2023-02-22T09:30:34.655Z,51.11
2023-02-22T09:33:04.821Z,51.80
2023-02-22T09:35:31.483Z,52.14
2023-02-22T09:38:00.135Z,51.47
2023-02-22T09:40:29.105Z,51.18
2023-02-22T09:43:09.309Z,49.73
2023-02-22T09:46:09.795Z,49.57
2023-02-22T09:48:51.519Z,50.22
2023-02-22T09:51:20.255Z,51.91
2023-02-22T09:53:50.957Z,50.70
2023-02-22T09:56:20.508Z,50.64
2023-02-22T09:58:55.414Z,48.78
2023-02-22T10:01:45.319Z,49.20
2023-02-22T10:04:41.004Z,47.07
2023-02-22T10:07:26.494Z,42.78
2023-02-22T10:09:55.388Z,49.78
2023-02-22T10:12:39.458Z,47.59
2023-02-22T10:15:21.061Z,47.43
2023-02-22T10:18:10.670Z,48.48
2023-02-22T10:20:45.047Z,46.30
2023-02-22T10:23:42.308Z,46.10
2023-02-22T10:26:11.759Z,47.92
2023-02-22T10:28:43.931Z,47.71
2023-02-22T10:31:21.948Z,47.47
2023-02-22T10:33:56.825Z,47.92
2023-02-22T10:36:25.388Z,49.19
2023-02-22T10:38:58.441Z,46.33
2023-02-22T10:41:38.893Z,44.80
2023-02-22T10:44:05.405Z,48.64
2023-02-22T10:46:33.422Z,47.57
2023-02-22T10:49:06.335Z,44.28
2023-02-22T10:51:33.315Z,46.65
2023-02-22T10:54:24.945Z,43.77
2023-02-22T10:56:54.328Z,46.03
2023-02-22T10:59:50.036Z,44.84
2023-02-22T11:02:21.499Z,43.88
2023-02-22T11:04:51.373Z,46.13
2023-02-22T11:07:36.919Z,43.88
2023-02-22T11:10:06.538Z,45.17
2023-02-22T11:12:35.616Z,45.70
2023-02-22T11:15:17.152Z,42.79
2023-02-22T11:17:46.280Z,43.98
2023-02-22T11:20:20.478Z,45.00
2023-02-22T11:22:47.025Z,43.05
2023-02-22T11:25:21.204Z,41.95
2023-02-22T11:27:48.100Z,43.18
2023-02-22T11:30:26.358Z,42.28
2023-02-22T11:32:59.083Z,41.44
2023-02-22T11:35:28.296Z,42.42
2023-02-22T11:38:15.643Z,42.55
2023-02-22T11:40:42.818Z,43.02
2023-02-22T11:43:19.594Z,42.61
2023-02-22T11:46:04.406Z,40.78
2023-02-22T11:48:35.512Z,42.79
2023-02-22T11:51:06.536Z,40.94
2023-02-22T11:54:11.817Z,39.30
2023-02-22T11:56:48.098Z,41.99
2023-02-22T11:59:20.508Z,43.39
2023-02-22T12:02:28.804Z,41.64
2023-02-22T12:05:07.580Z,40.54
2023-02-22T12:08:05.278Z,42.05
2023-02-22T12:11:21.265Z,42.99
2023-02-22T12:14:21.453Z,40.99
2023-02-22T12:17:02.921Z,41.85
2023-02-22T12:19:41.540Z,40.04
2023-02-22T12:22:36.043Z,37.31
2023-02-22T12:25:10.498Z,41.18
2023-02-22T12:27:44.204Z,40.13
2023-02-22T12:30:23.133Z,39.92
2023-02-22T12:32:53.728Z,42.29
2023-02-22T12:35:27.017Z,39.63
2023-02-22T12:38:11.904Z,41.05
2023-02-22T12:40:52.979Z,40.65
2023-02-22T12:43:32.795Z,39.61
2023-02-22T12:46:09.433Z,40.72
2023-02-22T12:48:46.192Z,41.25
2023-02-22T12:51:36.765Z,42.09
2023-02-22T12:54:20.910Z,40.36
2023-02-22T12:56:53.386Z,39.92
2023-02-22T12:59:33.424Z,39.11
2023-02-22T13:02:12.439Z,39.48
2023-02-22T13:04:39.091Z,41.40
2023-02-22T13:07:28.766Z,39.33
2023-02-22T13:10:26.476Z,38.93
2023-02-22T13:13:11.304Z,37.64
2023-02-22T13:15:55.051Z,39.94
2023-02-22T13:18:37.577Z,39.07
2023-02-22T13:21:36.554Z,39.27
2023-02-22T13:24:16.967Z,38.30
2023-02-22T13:26:46.686Z,38.85
2023-02-22T13:29:20.490Z,38.14
2023-02-22T13:32:09.707Z,38.77
2023-02-22T13:34:43.355Z,38.67
2023-02-22T13:37:35.771Z,40.48
2023-02-22T13:40:14.217Z,40.61
2023-02-22T13:43:01.064Z,40.56
2023-02-22T13:45:27.857Z,40.69
2023-02-22T13:48:33.316Z,40.70
2023-02-22T13:51:34.380Z,40.80
2023-02-22T13:54:17.879Z,41.11
2023-02-22T13:56:46.992Z,40.85
2023-02-22T13:59:29.276Z,36.76
2023-02-22T14:01:57.442Z,41.57
2023-02-22T14:04:27.053Z,40.55
2023-02-22T14:07:18.553Z,40.94
2023-02-22T14:09:56.644Z,41.57
2023-02-22T14:12:28.970Z,40.94
2023-02-22T14:15:22.037Z,40.02
2023-02-22T14:18:03.768Z,40.32
2023-02-22T14:20:37.809Z,40.90
2023-02-22T14:23:36.325Z,37.79
2023-02-22T14:26:46.069Z,41.03
2023-02-22T14:29:18.146Z,39.42
2023-02-22T14:31:44.725Z,41.03
2023-02-22T14:34:14.501Z,40.66
2023-02-22T14:36:51.698Z,39.03
2023-02-22T14:39:30.268Z,40.72
2023-02-22T14:42:21.726Z,40.57
2023-02-22T14:44:48.214Z,42.46
2023-02-22T14:47:40.560Z,41.16
2023-02-22T14:50:20.641Z,41.11
2023-02-22T14:52:48.896Z,42.00
2023-02-22T14:55:24.546Z,42.67
2023-02-22T14:58:08.165Z,39.68
2023-02-22T15:00:41.462Z,40.34
2023-02-22T15:03:23.466Z,40.44
2023-02-22T15:05:50.137Z,41.47
2023-02-22T15:08:18.651Z,41.95
2023-02-22T15:10:47.540Z,38.64
2023-02-22T15:13:34.298Z,40.35
2023-02-22T15:16:03.264Z,41.22
2023-02-22T15:18:42.648Z,40.03
2023-02-22T15:21:24.932Z,38.18
2023-02-22T15:23:55.051Z,41.05
2023-02-22T15:26:49.042Z,40.81
2023-02-22T15:29:23.843Z,42.37
2023-02-22T15:31:52.008Z,42.54
2023-02-22T15:34:22.251Z,42.49
2023-02-22T15:36:50.434Z,43.00
2023-02-22T15:39:27.732Z,43.37
2023-02-22T15:42:09.884Z,43.61
2023-02-22T15:44:41.310Z,43.28
2023-02-22T15:47:16.348Z,42.79
2023-02-22T15:49:42.964Z,43.95
2023-02-22T15:52:19.501Z,42.78
2023-02-22T15:54:50.284Z,43.43
2023-02-22T15:57:20.132Z,44.03
2023-02-22T15:59:53.052Z,44.18
2023-02-22T16:02:33.148Z,44.45
2023-02-22T16:05:05.129Z,44.27
2023-02-22T16:07:32.313Z,45.20
2023-02-22T16:09:59.738Z,45.05
2023-02-22T16:12:28.217Z,45.13
2023-02-22T16:14:55.666Z,45.61
2023-02-22T16:17:22.229Z,45.59
2023-02-22T16:19:48.771Z,45.73
2023-02-22T16:22:33.575Z,45.17
2023-02-22T16:25:19.939Z,45.46
2023-02-22T16:28:01.362Z,45.79
2023-02-22T16:30:31.787Z,46.05
2023-02-22T16:32:58.394Z,46.74
2023-02-22T16:35:26.336Z,46.75
2023-02-22T16:38:01.869Z,46.23
2023-02-22T16:40:33.208Z,46.70
2023-02-22T16:43:06.295Z,47.21
2023-02-22T16:45:32.911Z,47.35
2023-02-22T16:48:00.385Z,47.55
2023-02-22T16:50:26.968Z,47.75
2023-02-22T16:52:56.005Z,47.80
2023-02-22T16:55:22.812Z,47.82
2023-02-22T16:57:50.691Z,48.01
2023-02-22T17:00:23.789Z,47.83
2023-02-22T17:02:50.227Z,48.34
2023-02-22T17:05:17.002Z,48.59
2023-02-22T17:07:43.491Z,48.69
2023-02-22T17:10:17.716Z,48.58
2023-02-22T17:12:46.960Z,49.16
2023-02-22T17:15:34.962Z,48.67
2023-02-22T17:18:03.350Z,49.31
2023-02-22T17:20:31.413Z,49.36
2023-02-22T17:23:00.374Z,49.49
2023-02-22T17:25:33.368Z,49.58
2023-02-22T17:28:00.153Z,49.81
2023-02-22T17:30:26.778Z,49.81
2023-02-22T17:32:53.528Z,49.88
2023-02-22T17:35:22.077Z,50.04
2023-02-22T17:37:50.253Z,50.22
2023-02-22T17:40:16.865Z,50.02
2023-02-22T17:42:45.096Z,50.62
2023-02-22T17:45:12.608Z,50.28
2023-02-22T17:47:42.838Z,50.63
2023-02-22T17:50:11.613Z,50.81
2023-02-22T17:52:38.702Z,51.04
2023-02-22T17:55:05.912Z,51.21
2023-02-22T17:57:32.585Z,51.48
2023-02-22T18:00:02.258Z,51.70
2023-02-22T18:02:28.804Z,51.72
2023-02-22T18:04:55.360Z,51.99
2023-02-22T18:07:22.105Z,52.02
2023-02-22T18:09:48.843Z,52.19
2023-02-22T18:12:15.456Z,52.37
2023-02-22T18:14:42.037Z,52.62
2023-02-22T18:17:08.581Z,52.64
2023-02-22T18:19:35.140Z,52.88
2023-02-22T18:22:01.593Z,53.02
2023-02-22T18:24:28.080Z,53.19
2023-02-22T18:26:54.729Z,53.31
2023-02-22T18:29:21.450Z,53.51
2023-02-22T18:31:48.129Z,53.58
2023-02-22T18:34:14.628Z,53.67
2023-02-22T18:36:41.432Z,53.63
2023-02-22T18:39:10.585Z,53.85
2023-02-22T18:41:38.215Z,53.87
2023-02-22T18:44:05.404Z,53.92
2023-02-22T18:46:32.539Z,54.00
2023-02-22T18:48:59.353Z,54.02
2023-02-22T18:51:26.498Z,54.03
2023-02-22T18:53:56.046Z,53.97
2023-02-22T18:56:23.000Z,53.93
2023-02-22T18:58:57.098Z,54.46
2023-02-22T19:01:23.702Z,54.17
2023-02-22T19:03:50.301Z,54.08
2023-02-22T19:06:18.293Z,54.10
2023-02-22T19:08:46.421Z,54.18
2023-02-22T19:11:14.000Z,54.28
2023-02-22T19:13:40.554Z,54.30
2023-02-22T19:16:07.436Z,54.24
2023-02-22T19:18:34.696Z,54.41
2023-02-22T19:21:03.736Z,54.52
2023-02-22T19:23:34.200Z,54.64
2023-02-22T19:26:03.023Z,54.58
2023-02-22T19:28:30.021Z,54.51
2023-02-22T19:30:56.679Z,54.82
2023-02-22T19:33:23.224Z,54.77
2023-02-22T19:35:49.709Z,54.95
2023-02-22T19:38:16.303Z,54.92
2023-02-22T19:40:42.790Z,54.84
2023-02-22T19:43:09.361Z,54.94
2023-02-22T19:45:39.486Z,55.25
2023-02-22T19:48:06.249Z,55.24
2023-02-22T19:50:32.802Z,55.29
2023-02-22T19:52:59.410Z,55.10
2023-02-22T19:55:25.952Z,55.43
2023-02-22T19:57:52.505Z,55.40
2023-02-22T20:00:19.050Z,55.60
2023-02-22T20:02:45.641Z,55.61
2023-02-22T20:05:12.381Z,55.62
2023-02-22T20:07:39.221Z,55.90
2023-02-22T20:10:06.118Z,55.78
2023-02-22T20:12:32.765Z,55.83
2023-02-22T20:14:59.236Z,55.84
2023-02-22T20:17:27.110Z,55.98
2023-02-22T20:19:54.040Z,55.69
2023-02-22T20:22:21.505Z,55.69
2023-02-22T20:24:48.239Z,55.80
2023-02-22T20:27:15.347Z,55.92
2023-02-22T20:29:41.915Z,55.74
2023-02-22T20:32:12.856Z,55.56
2023-02-22T20:34:39.512Z,55.76
2023-02-22T20:37:06.080Z,55.73
2023-02-22T20:39:32.648Z,56.04
2023-02-22T20:41:59.147Z,55.94
2023-02-22T20:44:25.945Z,55.91
2023-02-22T20:46:52.467Z,55.75
2023-02-22T20:49:20.032Z,55.67
2023-02-22T20:51:48.184Z,55.88
2023-02-22T20:54:15.013Z,55.44
2023-02-22T20:56:44.373Z,55.69
2023-02-22T20:59:13.513Z,55.71
2023-02-22T21:01:40.533Z,55.82
2023-02-22T21:04:08.551Z,55.70
2023-02-22T21:06:36.025Z,55.79
2023-02-22T21:09:04.419Z,55.87
2023-02-22T21:11:31.392Z,55.71
2023-02-22T21:13:58.892Z,55.74
2023-02-22T21:16:29.108Z,55.86
2023-02-22T21:18:59.782Z,55.72
2023-02-22T21:21:27.930Z,55.76
2023-02-22T21:23:55.276Z,55.33
2023-02-22T21:26:25.276Z,55.96
2023-02-22T21:28:52.534Z,56.13
2023-02-22T21:31:22.013Z,56.06
2023-02-22T21:33:51.081Z,56.00
2023-02-22T21:36:18.654Z,56.02
2023-02-22T21:38:47.390Z,56.19
2023-02-22T21:41:16.235Z,56.35
2023-02-22T21:43:43.959Z,56.16
2023-02-22T21:46:10.873Z,56.48
2023-02-22T21:48:45.158Z,56.38
2023-02-22T21:51:15.215Z,56.43
2023-02-22T21:53:50.169Z,56.23
2023-02-22T21:56:20.419Z,56.50
2023-02-22T21:58:47.965Z,56.50
2023-02-22T22:01:14.546Z,56.63
2023-02-22T22:03:41.221Z,56.52
2023-02-22T22:06:09.113Z,56.53
2023-02-22T22:08:37.446Z,56.59
2023-02-22T22:11:05.806Z,56.62
2023-02-22T22:13:32.353Z,56.59
2023-02-22T22:16:04.126Z,56.74
2023-02-22T22:18:30.653Z,56.83
2023-02-22T22:20:57.433Z,56.78
2023-02-22T22:23:24.025Z,56.57
2023-02-22T22:25:50.956Z,56.69
2023-02-22T22:28:17.457Z,56.73
2023-02-22T22:30:44.175Z,56.94
2023-02-22T22:33:10.753Z,56.87
2023-02-22T22:35:39.933Z,56.91
2023-02-22T22:38:06.497Z,56.79
2023-02-22T22:40:33.175Z,56.95
2023-02-22T22:42:59.685Z,57.03
2023-02-22T22:45:26.367Z,57.14
2023-02-22T22:47:52.949Z,57.13
2023-02-22T22:50:19.714Z,57.28
2023-02-22T22:52:46.493Z,57.38
2023-02-22T22:55:13.179Z,57.32
2023-02-22T22:57:40.819Z,57.13
2023-02-22T23:00:12.957Z,57.11
2023-02-22T23:02:39.551Z,57.27
2023-02-22T23:05:06.364Z,57.26
2023-02-22T23:07:32.881Z,57.10
2023-02-22T23:09:59.396Z,57.27
2023-02-22T23:12:26.138Z,57.10
2023-02-22T23:14:52.822Z,57.15
2023-02-22T23:17:19.284Z,57.29
2023-02-22T23:19:45.882Z,57.19
2023-02-22T23:22:12.504Z,57.28
2023-02-22T23:24:39.958Z,57.13
2023-02-22T23:27:07.299Z,57.08
2023-02-22T23:29:37.975Z,57.21
2023-02-22T23:32:05.315Z,57.25
2023-02-22T23:34:32.959Z,57.54
2023-02-22T23:36:59.472Z,57.39
2023-02-22T23:39:26.165Z,57.29
2023-02-22T23:41:55.164Z,57.33
2023-02-22T23:44:22.105Z,57.40
2023-02-22T23:46:50.027Z,57.43
2023-02-22T23:49:17.378Z,57.49
2023-02-22T23:51:44.084Z,57.38
2023-02-22T23:54:13.344Z,57.29
2023-02-22T23:56:40.930Z,57.46
2023-02-22T23:59:07.815Z,57.54
